createdAt,value
2023-02-12T00:02:03.541Z,2.69
2023-02-12T00:04:31.987Z,2.69
2023-02-12T00:06:59.905Z,2.59
2023-02-12T00:09:27.459Z,2.60
2023-02-12T00:11:54.861Z,2.69
2023-02-12T00:14:22.247Z,2.58
2023-02-12T00:16:49.589Z,2.39
2023-02-12T00:19:16.965Z,2.63
2023-02-12T00:21:44.321Z,2.63
2023-02-12T00:24:11.804Z,2.69
2023-02-12T00:26:39.589Z,2.43
2023-02-12T00:29:07.128Z,2.32
2023-02-12T00:31:34.621Z,2.05
2023-02-12T00:34:02.048Z,1.90
2023-02-12T00:36:31.486Z,2.20
2023-02-12T00:39:00.253Z,2.25
2023-02-12T00:41:28.379Z,2.17
2023-02-12T00:43:56.184Z,2.18
2023-02-12T00:46:23.667Z,1.77
2023-02-12T00:48:51.211Z,1.58
2023-02-12T00:51:21.060Z,1.82
2023-02-12T00:53:48.497Z,1.93
2023-02-12T00:56:15.866Z,1.90
2023-02-12T00:58:43.264Z,1.88
2023-02-12T01:01:10.746Z,1.86
2023-02-12T01:03:38.707Z,1.77
2023-02-12T01:06:06.595Z,1.82
2023-02-12T01:08:34.129Z,1.64
2023-02-12T01:11:03.870Z,1.64
2023-02-12T01:13:33.335Z,1.55
2023-02-12T01:16:06.872Z,1.60
2023-02-12T01:18:35.304Z,1.59
2023-02-12T01:21:08.278Z,1.60
2023-02-12T01:23:35.676Z,1.52
2023-02-12T01:26:03.161Z,1.47
2023-02-12T01:28:30.749Z,1.15
2023-02-12T01:30:58.174Z,1.33
2023-02-12T01:33:25.633Z,1.23
2023-02-12T01:35:53.325Z,1.42
2023-02-12T01:38:20.866Z,1.36
2023-02-12T01:40:48.296Z,1.34
2023-02-12T01:43:15.736Z,1.45
2023-02-12T01:45:50.108Z,1.33
2023-02-12T01:48:19.307Z,1.27
2023-02-12T01:50:49.070Z,1.11
2023-02-12T01:53:20.429Z,1.24
2023-02-12T01:55:50.920Z,1.07
2023-02-12T01:58:19.225Z,1.12
2023-02-12T02:00:47.328Z,1.22
2023-02-12T02:03:14.953Z,0.99
2023-02-12T02:05:54.748Z,1.10
2023-02-12T02:08:23.174Z,1.15
2023-02-12T02:10:50.501Z,1.14
2023-02-12T02:13:37.112Z,1.29
2023-02-12T02:16:18.090Z,1.07
2023-02-12T02:19:06.329Z,1.39
2023-02-12T02:21:51.466Z,1.39
2023-02-12T02:24:47.885Z,1.47
2023-02-12T02:27:19.620Z,1.50
2023-02-12T02:30:15.143Z,1.51
2023-02-12T02:32:54.214Z,1.37
2023-02-12T02:35:41.358Z,1.20
2023-02-12T02:38:20.355Z,1.15
2023-02-12T02:41:02.619Z,1.24
2023-02-12T02:43:35.283Z,1.15
2023-02-12T02:46:08.724Z,1.14
2023-02-12T02:48:40.839Z,1.23
2023-02-12T02:51:14.353Z,1.10
2023-02-12T02:53:46.260Z,1.18
2023-02-12T02:56:17.850Z,1.05
2023-02-12T02:58:59.408Z,1.21
2023-02-12T03:01:44.900Z,1.25
2023-02-12T03:04:27.902Z,1.29
2023-02-12T03:07:01.489Z,1.33
2023-02-12T03:09:38.487Z,1.10
2023-02-12T03:12:14.554Z,1.23
2023-02-12T03:14:50.931Z,1.28
2023-02-12T03:17:27.292Z,1.24
2023-02-12T03:20:14.954Z,1.20
2023-02-12T03:22:49.252Z,1.35
2023-02-12T03:25:21.515Z,1.47
2023-02-12T03:28:22.500Z,1.57
2023-02-12T03:31:09.112Z,1.61
2023-02-12T03:33:45.368Z,1.60
2023-02-12T03:36:42.529Z,1.54
2023-02-12T03:39:30.060Z,1.51
2023-02-12T03:42:21.202Z,1.34
2023-02-12T03:45:05.058Z,1.65
2023-02-12T03:47:57.533Z,1.70
2023-02-12T03:50:42.935Z,1.65
2023-02-12T03:53:10.605Z,1.29
2023-02-12T03:55:42.494Z,0.96
2023-02-12T03:58:15.820Z,1.02
2023-02-12T04:00:44.235Z,0.93
2023-02-12T04:03:12.160Z,1.08
2023-02-12T04:05:39.511Z,1.18
2023-02-12T04:08:09.107Z,1.10
2023-02-12T04:10:46.809Z,1.03
2023-02-12T04:13:37.093Z,1.15
2023-02-12T04:16:27.997Z,1.13
2023-02-12T04:18:55.847Z,1.20
2023-02-12T04:21:44.474Z,1.18
2023-02-12T04:24:48.727Z,1.15
2023-02-12T04:27:29.676Z,1.04
2023-02-12T04:30:09.267Z,1.19
2023-02-12T04:32:55.254Z,1.06
2023-02-12T04:35:31.656Z,1.15
2023-02-12T04:38:08.859Z,1.20
2023-02-12T04:40:38.832Z,1.33
2023-02-12T04:43:06.325Z,1.35
2023-02-12T04:45:35.447Z,1.36
2023-02-12T04:48:03.443Z,1.36
2023-02-12T04:50:41.462Z,1.44
2023-02-12T04:53:10.160Z,1.47
2023-02-12T04:55:37.776Z,1.58
2023-02-12T04:58:06.275Z,1.63
2023-02-12T05:00:33.743Z,1.46
2023-02-12T05:03:01.229Z,1.36
2023-02-12T05:05:28.667Z,1.37
2023-02-12T05:07:56.067Z,1.22
2023-02-12T05:10:23.763Z,1.29
2023-02-12T05:12:54.935Z,1.22
2023-02-12T05:15:22.720Z,1.27
2023-02-12T05:17:50.161Z,0.88
2023-02-12T05:20:17.701Z,1.07
2023-02-12T05:22:45.067Z,1.21
2023-02-12T05:25:12.392Z,1.18
2023-02-12T05:27:39.777Z,1.19
2023-02-12T05:30:09.520Z,1.35
2023-02-12T05:32:36.993Z,1.07
2023-02-12T05:35:04.722Z,1.06
2023-02-12T05:37:36.245Z,1.13
2023-02-12T05:40:04.694Z,1.15
2023-02-12T05:42:32.142Z,1.11
2023-02-12T05:44:59.450Z,1.04
2023-02-12T05:47:26.936Z,0.96
2023-02-12T05:49:54.396Z,0.78
2023-02-12T05:52:21.794Z,0.90
2023-02-12T05:54:50.473Z,0.95
2023-02-12T05:57:18.122Z,1.08
2023-02-12T05:59:45.543Z,1.19
2023-02-12T06:02:12.893Z,1.26
2023-02-12T06:04:40.346Z,1.27
2023-02-12T06:07:07.783Z,1.20
2023-02-12T06:09:35.581Z,1.22
2023-02-12T06:12:03.481Z,1.16
2023-02-12T06:14:31.994Z,1.03
2023-02-12T06:16:59.552Z,1.25
2023-02-12T06:19:26.884Z,1.25
2023-02-12T06:21:54.269Z,1.07
2023-02-12T06:24:21.592Z,0.96
2023-02-12T06:26:52.489Z,0.97
2023-02-12T06:29:21.107Z,0.93
2023-02-12T06:31:49.272Z,0.95
2023-02-12T06:34:18.373Z,0.97
2023-02-12T06:36:47.253Z,1.04
2023-02-12T06:39:16.640Z,0.93
2023-02-12T06:41:44.692Z,1.01
2023-02-12T06:44:13.013Z,1.03
2023-02-12T06:46:40.618Z,0.95
2023-02-12T06:49:08.380Z,0.96
2023-02-12T06:51:38.307Z,0.97
2023-02-12T06:54:05.810Z,0.90
2023-02-12T06:56:33.313Z,0.99
2023-02-12T06:59:01.299Z,0.98
2023-02-12T07:01:30.027Z,1.05
2023-02-12T07:03:58.539Z,1.22
2023-02-12T07:06:27.366Z,1.18
2023-02-12T07:08:58.562Z,1.09
2023-02-12T07:11:28.050Z,1.11
2023-02-12T07:13:55.405Z,1.16
2023-02-12T07:16:23.370Z,1.01
2023-02-12T07:18:51.109Z,0.90
2023-02-12T07:21:19.963Z,0.98
2023-02-12T07:23:52.098Z,1.11
2023-02-12T07:26:21.612Z,1.26
2023-02-12T07:28:50.009Z,1.26
2023-02-12T07:31:20.472Z,1.30
2023-02-12T07:33:49.231Z,1.40
2023-02-12T07:36:19.507Z,1.53
2023-02-12T07:38:48.080Z,1.74
2023-02-12T07:41:19.646Z,1.84
2023-02-12T07:43:48.396Z,1.92
2023-02-12T07:46:21.991Z,2.00
2023-02-12T07:48:51.552Z,2.04
2023-02-12T07:51:19.399Z,2.05
2023-02-12T07:53:47.861Z,2.14
2023-02-12T07:56:19.174Z,2.16
2023-02-12T07:58:49.104Z,2.34
2023-02-12T08:01:24.075Z,2.44
2023-02-12T08:03:51.724Z,2.35
2023-02-12T08:06:23.129Z,2.39
2023-02-12T08:08:55.996Z,2.58
2023-02-12T08:11:24.846Z,2.73
2023-02-12T08:13:52.299Z,2.91
2023-02-12T08:16:22.155Z,3.08
2023-02-12T08:18:50.314Z,3.10
2023-02-12T08:21:23.238Z,3.21
2023-02-12T08:23:51.243Z,3.33
2023-02-12T08:26:22.158Z,3.77
2023-02-12T08:28:56.056Z,5.52
2023-02-12T08:31:26.143Z,7.80
2023-02-12T08:33:55.025Z,9.57
2023-02-12T08:36:25.381Z,11.02
2023-02-12T08:38:53.531Z,10.77
2023-02-12T08:41:23.927Z,9.67
2023-02-12T08:43:55.505Z,10.51
2023-02-12T08:46:24.557Z,10.99
2023-02-12T08:48:56.357Z,9.73
2023-02-12T08:51:26.565Z,10.04
2023-02-12T08:53:56.668Z,11.18
2023-02-12T08:56:25.681Z,11.80
2023-02-12T08:58:53.263Z,12.04
2023-02-12T09:01:23.148Z,11.92
2023-02-12T09:03:51.120Z,12.65
2023-02-12T09:06:21.253Z,12.87
2023-02-12T09:08:48.989Z,12.47
2023-02-12T09:11:19.286Z,11.60
2023-02-12T09:13:47.625Z,10.31
2023-02-12T09:16:15.092Z,9.65
2023-02-12T09:18:42.685Z,9.08
2023-02-12T09:21:13.727Z,8.24
2023-02-12T09:23:41.229Z,8.10
2023-02-12T09:26:11.539Z,7.88
2023-02-12T09:28:39.831Z,7.85
2023-02-12T09:31:16.259Z,7.81
2023-02-12T09:33:44.024Z,7.47
2023-02-12T09:36:14.796Z,7.31
2023-02-12T09:38:42.742Z,7.22
2023-02-12T09:41:34.776Z,7.27
2023-02-12T09:44:31.817Z,7.26
2023-02-12T09:47:10.808Z,7.38
2023-02-12T09:50:04.341Z,7.40
2023-02-12T09:52:31.912Z,7.28
2023-02-12T09:54:59.961Z,7.55
2023-02-12T09:57:33.417Z,7.67
2023-02-12T10:00:06.658Z,7.56
2023-02-12T10:02:37.709Z,7.47
2023-02-12T10:05:11.937Z,7.58
2023-02-12T10:08:06.059Z,7.56
2023-02-12T10:10:51.739Z,7.64
2023-02-12T10:13:34.239Z,7.72
2023-02-12T10:16:16.242Z,7.89
2023-02-12T10:18:51.377Z,7.95
2023-02-12T10:21:55.181Z,8.04
2023-02-12T10:24:28.508Z,8.14
2023-02-12T10:27:03.541Z,8.18
2023-02-12T10:29:38.198Z,8.23
2023-02-12T10:32:22.924Z,8.49
2023-02-12T10:34:51.537Z,8.51
2023-02-12T10:37:26.112Z,8.29
2023-02-12T10:40:01.708Z,8.24
2023-02-12T10:42:38.119Z,8.34
2023-02-12T10:45:06.561Z,8.41
2023-02-12T10:47:33.811Z,8.60
2023-02-12T10:50:02.965Z,8.61
2023-02-12T10:52:43.817Z,8.55
2023-02-12T10:55:32.381Z,8.65
2023-02-12T10:58:02.437Z,8.67
2023-02-12T11:00:31.766Z,8.83
2023-02-12T11:03:11.269Z,8.86
2023-02-12T11:05:41.978Z,8.96
2023-02-12T11:08:31.230Z,8.91
2023-02-12T11:11:13.863Z,8.94
2023-02-12T11:13:46.620Z,8.99
2023-02-12T11:16:14.366Z,9.01
2023-02-12T11:18:42.203Z,9.07
2023-02-12T11:21:11.451Z,9.25
2023-02-12T11:23:41.686Z,9.15
2023-02-12T11:26:18.259Z,9.24
2023-02-12T11:29:24.427Z,9.20
2023-02-12T11:32:08.476Z,9.31
2023-02-12T11:34:37.058Z,9.35
2023-02-12T11:37:05.163Z,9.39
2023-02-12T11:39:38.969Z,9.43
2023-02-12T11:42:18.580Z,9.59
2023-02-12T11:45:04.755Z,9.75
2023-02-12T11:47:35.425Z,9.97
2023-02-12T11:50:15.892Z,9.92
2023-02-12T11:52:44.037Z,9.84
2023-02-12T11:55:24.786Z,9.93
2023-02-12T11:57:54.978Z,9.83
2023-02-12T12:00:35.807Z,9.73
2023-02-12T12:03:26.933Z,9.76
2023-02-12T12:05:59.658Z,9.68
2023-02-12T12:08:40.684Z,9.76
2023-02-12T12:11:16.118Z,9.71
2023-02-12T12:13:49.718Z,9.69
2023-02-12T12:16:52.975Z,9.74
2023-02-12T12:19:56.324Z,9.78
2023-02-12T12:22:44.337Z,9.90
2023-02-12T12:25:20.546Z,9.97
2023-02-12T12:28:03.146Z,10.22
2023-02-12T12:30:33.703Z,10.11
2023-02-12T12:33:06.348Z,10.11
2023-02-12T12:35:51.196Z,10.24
2023-02-12T12:38:46.408Z,10.32
2023-02-12T12:41:48.011Z,10.36
2023-02-12T12:44:24.483Z,10.33
2023-02-12T12:47:13.268Z,10.42
2023-02-12T12:49:43.983Z,10.57
2023-02-12T12:52:23.425Z,10.56
2023-02-12T12:55:15.453Z,10.50
2023-02-12T12:57:54.931Z,10.52
2023-02-12T13:00:38.283Z,10.58
2023-02-12T13:03:41.176Z,10.58
2023-02-12T13:06:36.280Z,10.63
2023-02-12T13:09:37.589Z,10.65
2023-02-12T13:12:37.014Z,10.65
2023-02-12T13:15:17.573Z,10.72
2023-02-12T13:17:53.644Z,10.73
2023-02-12T13:20:42.177Z,10.74
2023-02-12T13:23:14.696Z,10.88
2023-02-12T13:25:59.221Z,11.08
2023-02-12T13:28:37.812Z,11.21
2023-02-12T13:31:30.013Z,11.37
2023-02-12T13:34:05.493Z,11.69
2023-02-12T13:36:36.594Z,11.85
2023-02-12T13:39:18.856Z,12.02
2023-02-12T13:41:57.479Z,12.00
2023-02-12T13:44:32.925Z,12.01
2023-02-12T13:47:16.184Z,12.00
2023-02-12T13:49:58.687Z,12.08
2023-02-12T13:52:57.117Z,12.11
2023-02-12T13:55:38.447Z,12.25
2023-02-12T13:58:39.943Z,12.37
2023-02-12T14:01:10.810Z,12.50
2023-02-12T14:03:39.177Z,12.43
2023-02-12T14:06:22.013Z,12.52
2023-02-12T14:09:09.749Z,12.42
2023-02-12T14:11:50.420Z,12.63
2023-02-12T14:14:40.752Z,12.57
2023-02-12T14:17:30.856Z,12.60
2023-02-12T14:20:22.909Z,12.52
2023-02-12T14:22:50.265Z,12.57
2023-02-12T14:25:38.247Z,12.46
2023-02-12T14:28:11.602Z,12.48
2023-02-12T14:30:40.582Z,12.45
2023-02-12T14:33:08.005Z,12.45
2023-02-12T14:35:36.961Z,12.34
2023-02-12T14:38:16.569Z,12.40
2023-02-12T14:40:48.789Z,12.28
2023-02-12T14:43:54.500Z,12.33
2023-02-12T14:46:25.000Z,12.29
2023-02-12T14:48:58.035Z,12.22
2023-02-12T14:51:56.056Z,12.25
2023-02-12T14:54:43.728Z,12.25
2023-02-12T14:57:31.545Z,12.25
2023-02-12T15:00:05.433Z,12.20
2023-02-12T15:02:36.301Z,12.23
2023-02-12T15:05:16.712Z,12.15
2023-02-12T15:07:48.713Z,12.13
2023-02-12T15:10:20.232Z,12.06
2023-02-12T15:13:12.811Z,12.04
2023-02-12T15:15:44.692Z,12.02
2023-02-12T15:18:27.625Z,12.02
2023-02-12T15:21:02.894Z,12.06
2023-02-12T15:23:42.372Z,11.96
2023-02-12T15:26:16.686Z,11.94
2023-02-12T15:28:48.526Z,11.95
2023-02-12T15:31:17.937Z,12.00
2023-02-12T15:33:49.052Z,11.98
2023-02-12T15:36:20.372Z,11.91
2023-02-12T15:38:54.779Z,11.82
2023-02-12T15:41:34.121Z,11.83
2023-02-12T15:44:05.164Z,11.85
2023-02-12T15:46:32.590Z,11.86
2023-02-12T15:49:00.381Z,11.80
2023-02-12T15:51:35.442Z,11.63
2023-02-12T15:54:06.730Z,11.62
2023-02-12T15:56:36.360Z,11.71
2023-02-12T15:59:04.397Z,11.69
2023-02-12T16:01:35.114Z,11.56
2023-02-12T16:04:08.399Z,11.60
2023-02-12T16:06:39.422Z,11.61
2023-02-12T16:09:15.507Z,11.59
2023-02-12T16:11:45.550Z,11.43
2023-02-12T16:14:36.781Z,11.43
2023-02-12T16:17:04.361Z,11.34
2023-02-12T16:19:37.057Z,11.44
2023-02-12T16:22:14.409Z,11.36
2023-02-12T16:24:51.587Z,11.31
2023-02-12T16:27:22.026Z,11.24
2023-02-12T16:29:53.033Z,11.11
2023-02-12T16:32:42.315Z,11.16
2023-02-12T16:35:09.623Z,11.20
2023-02-12T16:37:36.966Z,11.16
2023-02-12T16:40:19.145Z,11.09
2023-02-12T16:42:46.494Z,11.08
2023-02-12T16:45:30.697Z,11.01
2023-02-12T16:48:06.860Z,10.93
2023-02-12T16:50:38.312Z,10.98
2023-02-12T16:53:45.645Z,10.82
2023-02-12T16:56:21.211Z,10.77
2023-02-12T16:58:51.253Z,10.78
2023-02-12T17:01:28.837Z,10.79
2023-02-12T17:03:58.788Z,10.77
2023-02-12T17:06:29.568Z,10.69
2023-02-12T17:08:57.467Z,10.53
2023-02-12T17:11:26.131Z,10.58
2023-02-12T17:13:55.547Z,10.60
2023-02-12T17:16:32.158Z,10.54
2023-02-12T17:19:00.908Z,10.42
2023-02-12T17:21:40.598Z,10.48
2023-02-12T17:24:19.875Z,10.40
2023-02-12T17:26:47.346Z,10.32
2023-02-12T17:29:14.725Z,10.25
2023-02-12T17:31:42.200Z,10.24
2023-02-12T17:34:09.873Z,10.24
2023-02-12T17:36:38.417Z,10.25
2023-02-12T17:39:07.989Z,10.23
2023-02-12T17:41:35.494Z,10.18
2023-02-12T17:44:02.977Z,10.13
2023-02-12T17:46:30.899Z,10.07
2023-02-12T17:48:58.358Z,10.03
2023-02-12T17:51:26.683Z,10.09
2023-02-12T17:53:54.143Z,9.92
2023-02-12T17:56:23.062Z,9.97
2023-02-12T17:58:50.680Z,9.84
2023-02-12T18:01:21.106Z,9.81
2023-02-12T18:03:51.494Z,9.80
2023-02-12T18:06:25.276Z,9.88
2023-02-12T18:08:53.170Z,9.83
2023-02-12T18:11:21.385Z,9.72
2023-02-12T18:13:52.456Z,9.71
2023-02-12T18:16:20.341Z,9.70
2023-02-12T18:18:48.360Z,9.70
2023-02-12T18:21:16.593Z,9.68
2023-02-12T18:23:44.251Z,9.61
2023-02-12T18:26:14.308Z,9.64
2023-02-12T18:28:42.166Z,9.65
2023-02-12T18:31:10.501Z,9.56
2023-02-12T18:33:38.904Z,9.58
2023-02-12T18:36:08.017Z,9.55
2023-02-12T18:38:37.352Z,9.48
2023-02-12T18:41:14.424Z,9.42
2023-02-12T18:43:43.449Z,9.38
2023-02-12T18:46:26.742Z,9.35
2023-02-12T18:48:54.703Z,9.43
2023-02-12T18:51:28.026Z,9.37
2023-02-12T18:54:04.862Z,9.35
2023-02-12T18:56:36.547Z,9.38
2023-02-12T18:59:05.379Z,9.32
2023-02-12T19:01:34.086Z,9.29
2023-02-12T19:04:03.369Z,9.33
2023-02-12T19:06:32.808Z,9.20
2023-02-12T19:09:03.752Z,9.27
2023-02-12T19:11:31.351Z,9.22
2023-02-12T19:13:59.078Z,9.29
2023-02-12T19:16:26.885Z,9.30
2023-02-12T19:18:58.366Z,9.26
2023-02-12T19:21:28.885Z,9.23
2023-02-12T19:23:58.815Z,9.12
2023-02-12T19:26:28.908Z,9.04
2023-02-12T19:28:57.905Z,9.02
2023-02-12T19:31:31.453Z,9.03
2023-02-12T19:34:01.251Z,9.04
2023-02-12T19:36:30.720Z,9.07
2023-02-12T19:38:58.475Z,9.00
2023-02-12T19:41:28.230Z,9.01
2023-02-12T19:43:58.369Z,9.04
2023-02-12T19:46:27.784Z,9.05
2023-02-12T19:48:58.236Z,9.05
2023-02-12T19:51:26.166Z,9.03
2023-02-12T19:53:53.887Z,8.99
2023-02-12T19:56:21.309Z,9.05
2023-02-12T19:58:48.641Z,8.96
2023-02-12T20:01:20.909Z,8.98
2023-02-12T20:03:49.559Z,8.98
2023-02-12T20:06:21.966Z,8.98
2023-02-12T20:08:50.026Z,9.00
2023-02-12T20:11:20.939Z,9.09
2023-02-12T20:13:48.574Z,9.11
2023-02-12T20:16:18.896Z,9.06
2023-02-12T20:18:50.020Z,8.99
2023-02-12T20:21:21.123Z,9.02
2023-02-12T20:23:49.303Z,9.01
2023-02-12T20:26:18.363Z,9.00
2023-02-12T20:28:47.144Z,8.91
2023-02-12T20:31:19.938Z,8.88
2023-02-12T20:33:48.416Z,8.83
2023-02-12T20:36:15.841Z,8.81
2023-02-12T20:38:44.946Z,8.79
2023-02-12T20:41:13.733Z,8.83
2023-02-12T20:43:41.190Z,8.77
2023-02-12T20:46:13.899Z,8.74
2023-02-12T20:48:42.407Z,8.77
2023-02-12T20:51:15.589Z,8.62
2023-02-12T20:53:44.055Z,8.64
2023-02-12T20:56:16.765Z,8.60
2023-02-12T20:58:45.066Z,8.64
2023-02-12T21:01:23.888Z,8.65
2023-02-12T21:03:53.746Z,8.57
2023-02-12T21:06:23.257Z,8.54
2023-02-12T21:08:51.336Z,8.48
2023-02-12T21:11:22.926Z,8.58
2023-02-12T21:13:59.236Z,8.64
2023-02-12T21:16:34.485Z,8.64
2023-02-12T21:19:02.102Z,8.52
2023-02-12T21:21:32.409Z,8.57
2023-02-12T21:24:00.982Z,8.46
2023-02-12T21:26:31.105Z,8.31
2023-02-12T21:29:00.257Z,8.26
2023-02-12T21:31:33.923Z,8.13
2023-02-12T21:34:02.590Z,7.99
2023-02-12T21:36:32.861Z,7.84
2023-02-12T21:39:01.985Z,7.70
2023-02-12T21:41:32.159Z,7.60
2023-02-12T21:44:02.209Z,7.55
2023-02-12T21:46:30.037Z,7.36
2023-02-12T21:48:58.878Z,7.18
2023-02-12T21:51:28.757Z,7.10
2023-02-12T21:54:00.446Z,7.08
2023-02-12T21:56:28.196Z,7.04
2023-02-12T21:58:57.623Z,7.00
2023-02-12T22:01:28.807Z,7.00
2023-02-12T22:03:56.196Z,6.92
2023-02-12T22:06:24.996Z,6.90
2023-02-12T22:08:53.929Z,6.88
2023-02-12T22:11:23.140Z,6.92
2023-02-12T22:13:51.236Z,6.80
2023-02-12T22:16:18.609Z,6.81
2023-02-12T22:18:47.489Z,6.81
2023-02-12T22:21:16.443Z,6.78
2023-02-12T22:23:45.126Z,6.74
2023-02-12T22:26:20.697Z,6.77
2023-02-12T22:28:50.864Z,6.80
2023-02-12T22:31:21.972Z,6.84
2023-02-12T22:33:50.435Z,6.84
2023-02-12T22:36:18.795Z,6.84
2023-02-12T22:38:46.120Z,6.93
2023-02-12T22:41:13.634Z,6.83
2023-02-12T22:43:41.713Z,6.87
2023-02-12T22:46:10.649Z,6.87
2023-02-12T22:48:38.113Z,6.81
2023-02-12T22:51:18.307Z,6.80
2023-02-12T22:53:45.907Z,6.73
2023-02-12T22:56:13.488Z,6.63
2023-02-12T22:58:41.081Z,6.69
2023-02-12T23:01:11.770Z,6.67
2023-02-12T23:03:39.681Z,6.73
2023-02-12T23:06:10.734Z,6.87
2023-02-12T23:08:38.171Z,6.91
2023-02-12T23:11:08.267Z,6.98
2023-02-12T23:13:36.576Z,6.94
2023-02-12T23:16:04.365Z,7.00
2023-02-12T23:18:32.427Z,6.81
2023-02-12T23:21:01.085Z,6.70
2023-02-12T23:23:28.688Z,6.66
2023-02-12T23:25:56.228Z,6.71
2023-02-12T23:28:24.260Z,6.73
2023-02-12T23:30:52.541Z,6.80
2023-02-12T23:33:20.225Z,6.87
2023-02-12T23:35:47.998Z,6.78
2023-02-12T23:38:16.508Z,6.75
2023-02-12T23:40:44.224Z,6.71
2023-02-12T23:43:11.683Z,6.75
2023-02-12T23:45:39.128Z,6.80
2023-02-12T23:48:06.483Z,6.74
2023-02-12T23:50:33.926Z,6.82
2023-02-12T23:53:01.339Z,6.72
2023-02-12T23:55:28.988Z,6.71
2023-02-12T23:57:56.377Z,6.68
